DAL1294 KDTW-KFLL
Flight info
| Callsign | DAL1294 |
|---|---|
| Flight time | N/A |
| Altitude | 36000 |
| Route | CLVIN3 STAZE VXV THRSR/N0443F370 Q79 ZPLEN TEEKY4 |
| Aircraft | A321/M-SDE3FGHIRWY/LB1 |
Departure
| Time | 2026-05-05 19:23 |
|---|---|
| Airport | Detroit Metropolitan Wayne County Airport (KDTW) |
Arrival
| Time | N/A |
|---|---|
| Airport | Fort Lauderdale Hollywood International Airport (KFLL) |
| Time | Latitude | Longitude | Altitude | Speed | Heading |
|---|---|---|---|---|---|
| 2026-05-05 19:00 | 42.21210 | -83.35597 | 647 ft | 0 kts | 119° |
| 2026-05-05 19:06 | 42.21210 | -83.35598 | 646 ft | 0 kts | 119° |
| 2026-05-05 19:11 | 42.21216 | -83.35612 | 646 ft | 4 kts | 119° |
| 2026-05-05 19:11 | 42.21228 | -83.35641 | 649 ft | 2 kts | 119° |
| 2026-05-05 19:11 | 42.21237 | -83.35669 | 649 ft | 4 kts | 94° |
| 2026-05-05 19:12 | 42.21232 | -83.35700 | 651 ft | 4 kts | 42° |
| 2026-05-05 19:12 | 42.21211 | -83.35719 | 648 ft | 4 kts | 28° |
| 2026-05-05 19:12 | 42.21202 | -83.35725 | 646 ft | 0 kts | 28° |
| 2026-05-05 19:15 | 42.21215 | -83.35715 | 649 ft | 4 kts | 29° |
| 2026-05-05 19:15 | 42.21250 | -83.35690 | 647 ft | 7 kts | 29° |
| 2026-05-05 19:15 | 42.21302 | -83.35650 | 647 ft | 10 kts | 29° |
| 2026-05-05 19:15 | 42.21369 | -83.35601 | 646 ft | 12 kts | 29° |
| 2026-05-05 19:16 | 42.21448 | -83.35543 | 647 ft | 14 kts | 28° |
| 2026-05-05 19:16 | 42.21549 | -83.35508 | 646 ft | 16 kts | 358° |
| 2026-05-05 19:16 | 42.21674 | -83.35514 | 643 ft | 19 kts | 358° |
| 2026-05-05 19:16 | 42.21786 | -83.35515 | 645 ft | 13 kts | 7° |
| 2026-05-05 19:17 | 42.21821 | -83.35450 | 646 ft | 7 kts | 82° |
| 2026-05-05 19:17 | 42.21822 | -83.35407 | 645 ft | 4 kts | 89° |
| 2026-05-05 19:17 | 42.21822 | -83.35355 | 645 ft | 11 kts | 89° |
| 2026-05-05 19:17 | 42.21825 | -83.35199 | 646 ft | 22 kts | 89° |
| 2026-05-05 19:18 | 42.21830 | -83.34972 | 647 ft | 25 kts | 89° |
| 2026-05-05 19:18 | 42.21833 | -83.34763 | 646 ft | 20 kts | 89° |
| 2026-05-05 19:18 | 42.21836 | -83.34604 | 647 ft | 14 kts | 89° |
| 2026-05-05 19:18 | 42.21855 | -83.34504 | 649 ft | 9 kts | 49° |
| 2026-05-05 19:19 | 42.21901 | -83.34466 | 646 ft | 7 kts | 28° |
| 2026-05-05 19:19 | 42.21941 | -83.34437 | 646 ft | 8 kts | 28° |
| 2026-05-05 19:19 | 42.22013 | -83.34384 | 646 ft | 15 kts | 28° |
| 2026-05-05 19:19 | 42.22127 | -83.34300 | 646 ft | 22 kts | 29° |
| 2026-05-05 19:20 | 42.22268 | -83.34196 | 646 ft | 22 kts | 28° |
| 2026-05-05 19:20 | 42.22399 | -83.34100 | 646 ft | 21 kts | 28° |
| 2026-05-05 19:20 | 42.22518 | -83.34013 | 646 ft | 18 kts | 28° |
| 2026-05-05 19:20 | 42.22623 | -83.33935 | 646 ft | 16 kts | 28° |
| 2026-05-05 19:21 | 42.22729 | -83.33858 | 647 ft | 18 kts | 28° |
| 2026-05-05 19:21 | 42.22825 | -83.33787 | 646 ft | 13 kts | 29° |
| 2026-05-05 19:21 | 42.22855 | -83.33707 | 644 ft | 9 kts | 107° |
| 2026-05-05 19:21 | 42.22833 | -83.33648 | 645 ft | 7 kts | 124° |
| 2026-05-05 19:22 | 42.22777 | -83.33656 | 646 ft | 9 kts | 211° |
| 2026-05-05 19:22 | 42.22654 | -83.33746 | 647 ft | 48 kts | 209° |
| 2026-05-05 19:22 | 42.22168 | -83.34106 | 646 ft | 109 kts | 208° |
| 2026-05-05 19:22 | 42.21358 | -83.34704 | 646 ft | 155 kts | 208° |
| 2026-05-05 19:23 | 42.20362 | -83.35439 | 1074 ft | 163 kts | 212° |
| 2026-05-05 19:23 | 42.19366 | -83.36170 | 1788 ft | 163 kts | 211° |
| 2026-05-05 19:23 | 42.18285 | -83.36670 | 2397 ft | 166 kts | 200° |
| 2026-05-05 19:23 | 42.17123 | -83.37104 | 2666 ft | 184 kts | 200° |
| 2026-05-05 19:24 | 42.15822 | -83.37609 | 2862 ft | 205 kts | 200° |
| 2026-05-05 19:24 | 42.14374 | -83.38167 | 3010 ft | 228 kts | 200° |
| 2026-05-05 19:24 | 42.12762 | -83.38785 | 3296 ft | 252 kts | 199° |
| 2026-05-05 19:24 | 42.11055 | -83.39429 | 4102 ft | 255 kts | 200° |
| 2026-05-05 19:25 | 42.09358 | -83.40061 | 5112 ft | 251 kts | 201° |
| 2026-05-05 19:25 | 42.07687 | -83.40681 | 6119 ft | 247 kts | 202° |
| 2026-05-05 19:25 | 42.06020 | -83.41278 | 6814 ft | 249 kts | 201° |
| 2026-05-05 19:25 | 42.04344 | -83.41838 | 7703 ft | 248 kts | 201° |
| 2026-05-05 19:26 | 42.02660 | -83.42385 | 8545 ft | 250 kts | 201° |
| 2026-05-05 19:26 | 42.00960 | -83.42935 | 9317 ft | 253 kts | 201° |
| 2026-05-05 19:26 | 41.99243 | -83.43496 | 10055 ft | 255 kts | 202° |
| 2026-05-05 19:26 | 41.97457 | -83.44090 | 10347 ft | 275 kts | 201° |
| 2026-05-05 19:27 | 41.95460 | -83.44471 | 10511 ft | 305 kts | 189° |
| 2026-05-05 19:27 | 41.93280 | -83.44265 | 10995 ft | 320 kts | 182° |
| 2026-05-05 19:27 | 41.91049 | -83.43948 | 11637 ft | 324 kts | 182° |
| 2026-05-05 19:27 | 41.88790 | -83.43633 | 12289 ft | 328 kts | 182° |
| 2026-05-05 19:28 | 41.86503 | -83.43321 | 12954 ft | 332 kts | 182° |
| 2026-05-05 19:28 | 41.84189 | -83.43010 | 13609 ft | 336 kts | 182° |
| 2026-05-05 19:28 | 41.81851 | -83.42695 | 14184 ft | 340 kts | 182° |
| 2026-05-05 19:28 | 41.79486 | -83.42377 | 14762 ft | 343 kts | 181° |
| 2026-05-05 19:29 | 41.77103 | -83.42052 | 15377 ft | 346 kts | 181° |
| 2026-05-05 19:29 | 41.74698 | -83.41722 | 15967 ft | 349 kts | 181° |
| 2026-05-05 19:29 | 41.72278 | -83.41473 | 16554 ft | 347 kts | 187° |
| 2026-05-05 19:29 | 41.69902 | -83.41785 | 17137 ft | 342 kts | 198° |
| 2026-05-05 19:30 | 41.67628 | -83.42676 | 17725 ft | 340 kts | 205° |
| 2026-05-05 19:30 | 41.65384 | -83.43707 | 18289 ft | 342 kts | 204° |
| 2026-05-05 19:30 | 41.63120 | -83.44739 | 18815 ft | 345 kts | 205° |
| 2026-05-05 19:30 | 41.60836 | -83.45774 | 19320 ft | 348 kts | 205° |
| 2026-05-05 19:31 | 41.58530 | -83.46815 | 19779 ft | 351 kts | 205° |
| 2026-05-05 19:31 | 41.56198 | -83.47866 | 20217 ft | 356 kts | 205° |
| 2026-05-05 19:31 | 41.53841 | -83.48927 | 20666 ft | 359 kts | 205° |
| 2026-05-05 19:31 | 41.51463 | -83.49995 | 21128 ft | 362 kts | 205° |
| 2026-05-05 19:32 | 41.49067 | -83.51073 | 21580 ft | 365 kts | 205° |
| 2026-05-05 19:32 | 41.46680 | -83.52149 | 21990 ft | 368 kts | 205° |
| 2026-05-05 19:32 | 41.44244 | -83.53249 | 22438 ft | 371 kts | 205° |
| 2026-05-05 19:32 | 41.41788 | -83.54358 | 22882 ft | 374 kts | 205° |
| 2026-05-05 19:33 | 41.39311 | -83.55471 | 23317 ft | 377 kts | 205° |
| 2026-05-05 19:33 | 41.36813 | -83.56592 | 23644 ft | 381 kts | 205° |
| 2026-05-05 19:33 | 41.34294 | -83.57725 | 23992 ft | 383 kts | 205° |
| 2026-05-05 19:33 | 41.31763 | -83.58864 | 24379 ft | 385 kts | 205° |
| 2026-05-05 19:34 | 41.29224 | -83.60005 | 24779 ft | 386 kts | 205° |
| 2026-05-05 19:34 | 41.26674 | -83.61147 | 25157 ft | 388 kts | 205° |
| 2026-05-05 19:34 | 41.24112 | -83.62290 | 25543 ft | 389 kts | 205° |
| 2026-05-05 19:35 | 41.18962 | -83.64588 | 26298 ft | 392 kts | 205° |
| 2026-05-05 19:35 | 41.16373 | -83.65744 | 26642 ft | 393 kts | 205° |
| 2026-05-05 19:35 | 41.13769 | -83.66904 | 26972 ft | 396 kts | 205° |
| 2026-05-05 19:35 | 41.11154 | -83.68068 | 27311 ft | 398 kts | 205° |
| 2026-05-05 19:36 | 41.08527 | -83.69234 | 27659 ft | 399 kts | 205° |
| 2026-05-05 19:36 | 41.05886 | -83.70407 | 27997 ft | 401 kts | 205° |
| 2026-05-05 19:36 | 41.03234 | -83.71587 | 28333 ft | 402 kts | 205° |
| 2026-05-05 19:36 | 41.00577 | -83.72771 | 28675 ft | 404 kts | 205° |
| 2026-05-05 19:37 | 40.97907 | -83.73958 | 28993 ft | 406 kts | 205° |
| 2026-05-05 19:37 | 40.95226 | -83.75146 | 29255 ft | 408 kts | 206° |
| 2026-05-05 19:37 | 40.92523 | -83.76342 | 29491 ft | 411 kts | 206° |
| 2026-05-05 19:37 | 40.89800 | -83.77545 | 29763 ft | 413 kts | 206° |
| 2026-05-05 19:38 | 40.87068 | -83.78754 | 30034 ft | 415 kts | 206° |
| 2026-05-05 19:38 | 40.84324 | -83.79969 | 30275 ft | 417 kts | 206° |
| 2026-05-05 19:38 | 40.81567 | -83.81189 | 30521 ft | 419 kts | 206° |
| 2026-05-05 19:38 | 40.78798 | -83.82408 | 30769 ft | 421 kts | 206° |
| 2026-05-05 19:39 | 40.76020 | -83.83627 | 31100 ft | 420 kts | 206° |
| 2026-05-05 19:39 | 40.73250 | -83.84843 | 31430 ft | 420 kts | 206° |
| 2026-05-05 19:39 | 40.70479 | -83.86061 | 31742 ft | 420 kts | 207° |
| 2026-05-05 19:39 | 40.67707 | -83.87281 | 32077 ft | 420 kts | 207° |
| 2026-05-05 19:40 | 40.64938 | -83.88500 | 32408 ft | 420 kts | 207° |
| 2026-05-05 19:40 | 40.62174 | -83.89715 | 32743 ft | 419 kts | 207° |
| 2026-05-05 19:40 | 40.59402 | -83.90933 | 33078 ft | 419 kts | 207° |
| 2026-05-05 19:40 | 40.56634 | -83.92147 | 33392 ft | 420 kts | 207° |
| 2026-05-05 19:41 | 40.53860 | -83.93362 | 33657 ft | 421 kts | 207° |
| 2026-05-05 19:41 | 40.51074 | -83.94576 | 33918 ft | 422 kts | 207° |
| 2026-05-05 19:41 | 40.48290 | -83.95792 | 34174 ft | 422 kts | 207° |
| 2026-05-05 19:41 | 40.45506 | -83.97011 | 34418 ft | 422 kts | 208° |
| 2026-05-05 19:42 | 40.42717 | -83.98231 | 34654 ft | 423 kts | 208° |
| 2026-05-05 19:42 | 40.39927 | -83.99448 | 34889 ft | 423 kts | 208° |
| 2026-05-05 19:42 | 40.37135 | -84.00661 | 35125 ft | 423 kts | 208° |
| 2026-05-05 19:42 | 40.34335 | -84.01875 | 35357 ft | 424 kts | 208° |
| 2026-05-05 19:43 | 40.31536 | -84.03090 | 35548 ft | 424 kts | 209° |
| 2026-05-05 19:43 | 40.28657 | -84.04105 | 35734 ft | 437 kts | 201° |
| 2026-05-05 19:43 | 40.25583 | -84.04565 | 35841 ft | 449 kts | 194° |
| 2026-05-05 19:44 | 40.19369 | -84.05021 | 35856 ft | 446 kts | 194° |
| 2026-05-05 19:44 | 40.13296 | -84.05492 | 35850 ft | 445 kts | 194° |
| 2026-05-05 19:45 | 40.07109 | -84.05989 | 35864 ft | 446 kts | 195° |
| 2026-05-05 19:45 | 40.00898 | -84.06484 | 35872 ft | 448 kts | 194° |
| 2026-05-05 19:46 | 39.94678 | -84.06958 | 35858 ft | 448 kts | 194° |
| 2026-05-05 19:46 | 39.88462 | -84.07435 | 35856 ft | 447 kts | 194° |
| 2026-05-05 19:47 | 39.82242 | -84.07924 | 35835 ft | 449 kts | 194° |
| 2026-05-05 19:47 | 39.75997 | -84.08413 | 35843 ft | 450 kts | 194° |
| 2026-05-05 19:48 | 39.69753 | -84.08897 | 35834 ft | 449 kts | 194° |
| 2026-05-05 19:48 | 39.63718 | -84.09355 | 35801 ft | 450 kts | 194° |
| 2026-05-05 19:49 | 39.57369 | -84.09839 | 35837 ft | 452 kts | 194° |
| 2026-05-05 19:49 | 39.51087 | -84.10327 | 35847 ft | 452 kts | 195° |
| 2026-05-05 19:50 | 39.44798 | -84.10816 | 35849 ft | 453 kts | 195° |
| 2026-05-05 19:50 | 39.38498 | -84.11300 | 35845 ft | 455 kts | 194° |
| 2026-05-05 19:51 | 39.32172 | -84.11781 | 35849 ft | 456 kts | 194° |
| 2026-05-05 19:51 | 39.25834 | -84.12259 | 35853 ft | 456 kts | 194° |
| 2026-05-05 19:52 | 39.19496 | -84.12733 | 35827 ft | 456 kts | 195° |
| 2026-05-05 19:52 | 39.13159 | -84.13219 | 35840 ft | 457 kts | 195° |
| 2026-05-05 19:53 | 39.06802 | -84.13706 | 35841 ft | 458 kts | 195° |
| 2026-05-05 19:53 | 39.00483 | -84.14191 | 35852 ft | 459 kts | 195° |
| 2026-05-05 19:54 | 38.94097 | -84.14648 | 35829 ft | 463 kts | 192° |
| 2026-05-05 19:54 | 38.87564 | -84.14185 | 35844 ft | 472 kts | 187° |
| 2026-05-05 19:55 | 38.81006 | -84.13597 | 35856 ft | 473 kts | 187° |
| 2026-05-05 19:55 | 38.74440 | -84.13025 | 35828 ft | 473 kts | 187° |
| 2026-05-05 19:56 | 38.67872 | -84.12469 | 35850 ft | 474 kts | 187° |
| 2026-05-05 19:56 | 38.61287 | -84.11910 | 35868 ft | 474 kts | 187° |
| 2026-05-05 19:57 | 38.54697 | -84.11347 | 35879 ft | 475 kts | 187° |
| 2026-05-05 19:57 | 38.48188 | -84.10792 | 35862 ft | 475 kts | 188° |
| 2026-05-05 19:58 | 38.41590 | -84.10223 | 35868 ft | 475 kts | 187° |
| 2026-05-05 19:58 | 38.34985 | -84.09651 | 35886 ft | 476 kts | 188° |
| 2026-05-05 19:59 | 38.28377 | -84.09089 | 35914 ft | 476 kts | 188° |
| 2026-05-05 19:59 | 38.21768 | -84.08534 | 35934 ft | 476 kts | 188° |
| 2026-05-05 20:00 | 38.15155 | -84.07975 | 35946 ft | 476 kts | 188° |
| 2026-05-05 20:00 | 38.09658 | -84.07503 | 35956 ft | 477 kts | 188° |
| 2026-05-05 20:01 | 38.03038 | -84.06936 | 35939 ft | 477 kts | 187° |
| 2026-05-05 20:01 | 37.96417 | -84.06377 | 35892 ft | 477 kts | 187° |
| 2026-05-05 20:02 | 37.89786 | -84.05815 | 35909 ft | 478 kts | 187° |
| 2026-05-05 20:02 | 37.83150 | -84.05262 | 35926 ft | 478 kts | 188° |
| 2026-05-05 20:03 | 37.76512 | -84.04711 | 35914 ft | 478 kts | 187° |
| 2026-05-05 20:03 | 37.69871 | -84.04161 | 35934 ft | 478 kts | 187° |
| 2026-05-05 20:04 | 37.63228 | -84.03606 | 35945 ft | 479 kts | 187° |
| 2026-05-05 20:04 | 37.56584 | -84.03039 | 35938 ft | 478 kts | 187° |
| 2026-05-05 20:05 | 37.49940 | -84.02478 | 35937 ft | 479 kts | 187° |
| 2026-05-05 20:05 | 37.43293 | -84.01929 | 35930 ft | 479 kts | 187° |
| 2026-05-05 20:06 | 37.36641 | -84.01382 | 35942 ft | 479 kts | 187° |
| 2026-05-05 20:06 | 37.29996 | -84.00838 | 35911 ft | 479 kts | 187° |
| 2026-05-05 20:07 | 37.23346 | -84.00283 | 35945 ft | 479 kts | 187° |
| 2026-05-05 20:07 | 37.16697 | -83.99737 | 35955 ft | 479 kts | 187° |
| 2026-05-05 20:08 | 37.10041 | -83.99188 | 35963 ft | 479 kts | 187° |
| 2026-05-05 20:08 | 37.03382 | -83.98628 | 35951 ft | 480 kts | 187° |
| 2026-05-05 20:09 | 36.96762 | -83.98079 | 35957 ft | 480 kts | 187° |
| 2026-05-05 20:09 | 36.90101 | -83.97533 | 35958 ft | 480 kts | 187° |
| 2026-05-05 20:10 | 36.83442 | -83.96986 | 35936 ft | 479 kts | 187° |
| 2026-05-05 20:10 | 36.76786 | -83.96441 | 35949 ft | 480 kts | 187° |
| 2026-05-05 20:11 | 36.70120 | -83.95901 | 35954 ft | 480 kts | 187° |
| 2026-05-05 20:11 | 36.63446 | -83.95363 | 35958 ft | 480 kts | 187° |
| 2026-05-05 20:12 | 36.56778 | -83.94824 | 35937 ft | 480 kts | 187° |
| 2026-05-05 20:12 | 36.50106 | -83.94273 | 35943 ft | 480 kts | 187° |
| 2026-05-05 20:13 | 36.43430 | -83.93726 | 35950 ft | 481 kts | 187° |
| 2026-05-05 20:13 | 36.36757 | -83.93192 | 35963 ft | 480 kts | 187° |
| 2026-05-05 20:14 | 36.30161 | -83.92670 | 35930 ft | 480 kts | 187° |
| 2026-05-05 20:14 | 36.23483 | -83.92133 | 35940 ft | 481 kts | 187° |
| 2026-05-05 20:15 | 36.16802 | -83.91586 | 35949 ft | 481 kts | 187° |
| 2026-05-05 20:15 | 36.10119 | -83.91049 | 35971 ft | 481 kts | 187° |
| 2026-05-05 20:16 | 36.03428 | -83.90510 | 35950 ft | 482 kts | 186° |
| 2026-05-05 20:16 | 35.96734 | -83.89970 | 35955 ft | 482 kts | 186° |
| 2026-05-05 20:17 | 35.90085 | -83.89757 | 35953 ft | 469 kts | 196° |
| 2026-05-05 20:17 | 35.86900 | -83.90328 | 35960 ft | 458 kts | 203° |
| 2026-05-05 20:17 | 35.83820 | -83.91087 | 35956 ft | 457 kts | 203° |
| 2026-05-05 20:18 | 35.77582 | -83.92625 | 35951 ft | 457 kts | 202° |
| 2026-05-05 20:18 | 35.71401 | -83.94140 | 35952 ft | 458 kts | 202° |
| 2026-05-05 20:19 | 35.65147 | -83.95651 | 35960 ft | 458 kts | 202° |
| 2026-05-05 20:19 | 35.58884 | -83.97161 | 35935 ft | 459 kts | 202° |
| 2026-05-05 20:20 | 35.52626 | -83.98677 | 35946 ft | 458 kts | 202° |
| 2026-05-05 20:20 | 35.46361 | -84.00197 | 35986 ft | 460 kts | 202° |
| 2026-05-05 20:21 | 35.40087 | -84.01710 | 35987 ft | 459 kts | 202° |
| 2026-05-05 20:21 | 35.33808 | -84.03226 | 35964 ft | 459 kts | 202° |
| 2026-05-05 20:22 | 35.27499 | -84.04746 | 36036 ft | 464 kts | 202° |
| 2026-05-05 20:22 | 35.21164 | -84.06270 | 36045 ft | 464 kts | 202° |
| 2026-05-05 20:23 | 35.14896 | -84.07766 | 36025 ft | 462 kts | 202° |
| 2026-05-05 20:23 | 35.08592 | -84.09265 | 36010 ft | 461 kts | 202° |
| 2026-05-05 20:24 | 35.02297 | -84.10773 | 36011 ft | 461 kts | 202° |
| 2026-05-05 20:24 | 34.95990 | -84.12293 | 36024 ft | 462 kts | 202° |
| 2026-05-05 20:25 | 34.89668 | -84.13803 | 36031 ft | 463 kts | 202° |
| 2026-05-05 20:25 | 34.83339 | -84.15303 | 36015 ft | 464 kts | 202° |
| 2026-05-05 20:26 | 34.76972 | -84.16815 | 36035 ft | 467 kts | 202° |
| 2026-05-05 20:26 | 34.70588 | -84.18325 | 36025 ft | 467 kts | 202° |
| 2026-05-05 20:27 | 34.64204 | -84.19827 | 36020 ft | 467 kts | 202° |
| 2026-05-05 20:27 | 34.57888 | -84.21326 | 35989 ft | 467 kts | 202° |
| 2026-05-05 20:28 | 34.51565 | -84.22824 | 35993 ft | 468 kts | 202° |
| 2026-05-05 20:28 | 34.45175 | -84.24335 | 36001 ft | 468 kts | 202° |
| 2026-05-05 20:29 | 34.38782 | -84.25838 | 35999 ft | 468 kts | 202° |
| 2026-05-05 20:29 | 34.32392 | -84.27335 | 35980 ft | 468 kts | 202° |
| 2026-05-05 20:30 | 34.26051 | -84.28824 | 35997 ft | 469 kts | 202° |
| 2026-05-05 20:30 | 34.19651 | -84.30322 | 36006 ft | 468 kts | 202° |
| 2026-05-05 20:31 | 34.13257 | -84.31812 | 36027 ft | 468 kts | 202° |
| 2026-05-05 20:31 | 34.06867 | -84.33302 | 36003 ft | 467 kts | 202° |
| 2026-05-05 20:32 | 34.00487 | -84.34794 | 36017 ft | 467 kts | 202° |
| 2026-05-05 20:32 | 33.94160 | -84.36272 | 36028 ft | 467 kts | 202° |
| 2026-05-05 20:33 | 33.87835 | -84.37747 | 36009 ft | 467 kts | 202° |
| 2026-05-05 20:33 | 33.81450 | -84.39231 | 35992 ft | 467 kts | 202° |
| 2026-05-05 20:34 | 33.75064 | -84.40709 | 36005 ft | 468 kts | 202° |
| 2026-05-05 20:34 | 33.68667 | -84.42183 | 36032 ft | 468 kts | 202° |
| 2026-05-05 20:34 | 33.65396 | -84.42667 | 36032 ft | 481 kts | 193° |
| 2026-05-05 20:35 | 33.62004 | -84.42536 | 36033 ft | 495 kts | 182° |
| 2026-05-05 20:35 | 33.58581 | -84.41740 | 36035 ft | 508 kts | 172° |
| 2026-05-05 20:35 | 33.55269 | -84.40443 | 35999 ft | 512 kts | 169° |
| 2026-05-05 20:36 | 33.48494 | -84.37712 | 36040 ft | 516 kts | 169° |
| 2026-05-05 20:36 | 33.41684 | -84.34986 | 36077 ft | 516 kts | 169° |
| 2026-05-05 20:37 | 33.34877 | -84.32261 | 36186 ft | 516 kts | 169° |
| 2026-05-05 20:37 | 33.32620 | -84.31359 | 36350 ft | 516 kts | 169° |
| 2026-05-05 20:37 | 33.28066 | -84.29540 | 36681 ft | 515 kts | 169° |
| 2026-05-05 20:37 | 33.24670 | -84.28184 | 36936 ft | 515 kts | 169° |
| 2026-05-05 20:38 | 33.21262 | -84.26827 | 37044 ft | 516 kts | 169° |
| 2026-05-05 20:38 | 33.14457 | -84.24118 | 37052 ft | 515 kts | 169° |
| 2026-05-05 20:39 | 33.07699 | -84.21422 | 37046 ft | 515 kts | 169° |
| 2026-05-05 20:39 | 33.00898 | -84.18720 | 37043 ft | 516 kts | 169° |
| 2026-05-05 20:40 | 32.94071 | -84.16016 | 37062 ft | 517 kts | 169° |
| 2026-05-05 20:40 | 32.87236 | -84.13313 | 37060 ft | 518 kts | 169° |
| 2026-05-05 20:41 | 32.80401 | -84.10610 | 37056 ft | 518 kts | 169° |
| 2026-05-05 20:41 | 32.73559 | -84.07913 | 37012 ft | 518 kts | 169° |
| 2026-05-05 20:42 | 32.66711 | -84.05217 | 37016 ft | 519 kts | 169° |
| 2026-05-05 20:42 | 32.59853 | -84.02524 | 37026 ft | 520 kts | 169° |
| 2026-05-05 20:43 | 32.52985 | -83.99832 | 37040 ft | 520 kts | 169° |
| 2026-05-05 20:43 | 32.46113 | -83.97140 | 37020 ft | 520 kts | 170° |
| 2026-05-05 20:44 | 32.39245 | -83.94447 | 37031 ft | 520 kts | 170° |
| 2026-05-05 20:44 | 32.32369 | -83.91754 | 37038 ft | 521 kts | 170° |
| 2026-05-05 20:45 | 32.22049 | -83.87726 | 37059 ft | 521 kts | 169° |
| 2026-05-05 20:45 | 32.15168 | -83.85050 | 37033 ft | 521 kts | 169° |
| 2026-05-05 20:46 | 32.09449 | -83.82833 | 37046 ft | 521 kts | 169° |
| 2026-05-05 20:46 | 32.02569 | -83.80171 | 37055 ft | 520 kts | 169° |
| 2026-05-05 20:47 | 31.95689 | -83.77508 | 37063 ft | 521 kts | 169° |